createdAt,value
2018-07-20T00:01:34.145Z,2.90
2018-07-20T00:04:03.240Z,2.97
2018-07-20T00:06:32.295Z,3.03
2018-07-20T00:09:01.703Z,2.80
2018-07-20T00:11:30.598Z,2.60
2018-07-20T00:13:59.722Z,3.30
2018-07-20T00:16:28.566Z,3.17
2018-07-20T00:18:57.694Z,3.20
2018-07-20T00:21:26.948Z,2.80
2018-07-20T00:23:56.063Z,2.90
2018-07-20T00:26:24.928Z,3.40
2018-07-20T00:28:53.776Z,2.70
2018-07-20T00:31:22.646Z,3.00
2018-07-20T00:33:51.808Z,2.80
2018-07-20T00:36:20.688Z,3.00
2018-07-20T00:38:49.818Z,2.90
2018-07-20T00:41:18.691Z,2.70
2018-07-20T00:43:47.538Z,2.87
2018-07-20T00:46:16.458Z,2.90
2018-07-20T00:48:45.324Z,3.20
2018-07-20T00:51:14.239Z,3.00
2018-07-20T00:53:43.115Z,3.13
2018-07-20T00:56:12.494Z,3.10
2018-07-20T00:58:41.358Z,3.50
2018-07-20T01:01:10.274Z,2.93
2018-07-20T01:03:39.183Z,2.80
2018-07-20T01:06:08.064Z,3.00
2018-07-20T01:08:37.459Z,3.10
2018-07-20T01:11:06.335Z,3.20
2018-07-20T01:13:35.255Z,3.23
2018-07-20T01:16:04.118Z,2.87
2018-07-20T01:18:32.997Z,3.27
2018-07-20T01:21:01.883Z,3.10
2018-07-20T01:23:30.718Z,2.83
2018-07-20T01:26:00.079Z,2.97
2018-07-20T01:28:30.190Z,3.00
2018-07-20T01:30:59.123Z,2.83
2018-07-20T01:33:27.971Z,2.80
2018-07-20T01:35:56.847Z,2.97
2018-07-20T01:38:25.723Z,2.93
2018-07-20T01:40:54.826Z,3.30
2018-07-20T01:43:24.047Z,3.20
2018-07-20T01:45:53.138Z,3.00
2018-07-20T01:48:22.263Z,2.93
2018-07-20T01:50:51.166Z,3.00
2018-07-20T01:53:20.033Z,3.20
2018-07-20T01:55:49.255Z,3.40
2018-07-20T01:58:18.204Z,2.93
2018-07-20T02:00:47.527Z,3.30
2018-07-20T02:03:16.702Z,3.10
2018-07-20T02:05:45.687Z,3.07
2018-07-20T02:08:14.559Z,3.33
2018-07-20T02:10:43.400Z,3.23
2018-07-20T02:13:12.257Z,3.37
2018-07-20T02:15:41.378Z,3.40
2018-07-20T02:18:10.458Z,3.17
2018-07-20T02:20:39.557Z,3.20
2018-07-20T02:23:08.419Z,3.03
2018-07-20T02:25:37.263Z,2.80
2018-07-20T02:28:06.154Z,3.03
2018-07-20T02:30:35.346Z,3.00
2018-07-20T02:33:04.212Z,2.97
2018-07-20T02:35:33.382Z,3.23
2018-07-20T02:38:02.497Z,3.20
2018-07-20T02:40:31.687Z,3.20
2018-07-20T02:43:00.556Z,3.20
2018-07-20T02:45:29.619Z,3.17
2018-07-20T02:47:58.815Z,3.40
2018-07-20T02:50:27.715Z,3.33
2018-07-20T02:52:56.638Z,3.60
2018-07-20T02:55:26.055Z,3.33
2018-07-20T02:57:55.235Z,3.27
2018-07-20T03:00:24.363Z,3.30
2018-07-20T03:02:53.249Z,3.20
2018-07-20T03:05:22.349Z,3.47
2018-07-20T03:07:51.251Z,3.50
2018-07-20T03:10:20.095Z,3.50
2018-07-20T03:12:48.944Z,3.43
2018-07-20T03:15:18.402Z,3.63
2018-07-20T03:17:47.290Z,3.60
2018-07-20T03:20:17.025Z,3.30
2018-07-20T03:22:45.896Z,3.20
2018-07-20T03:25:15.216Z,3.77
2018-07-20T03:27:44.125Z,2.80
2018-07-20T03:30:13.227Z,3.07
2018-07-20T03:32:42.093Z,3.30
2018-07-20T03:35:10.987Z,2.90
2018-07-20T03:37:40.176Z,3.27
2018-07-20T03:40:09.371Z,3.27
2018-07-20T03:42:38.198Z,3.20
2018-07-20T03:45:07.072Z,3.60
2018-07-20T03:47:35.911Z,4.00
2018-07-20T03:50:05.150Z,3.57
2018-07-20T03:52:34.093Z,3.40
2018-07-20T03:55:02.957Z,3.97
2018-07-20T03:57:31.903Z,3.90
2018-07-20T04:00:00.706Z,3.50
2018-07-20T04:02:29.611Z,3.57
2018-07-20T04:04:58.288Z,3.40
2018-07-20T04:07:27.018Z,3.50
2018-07-20T04:09:56.160Z,3.30
2018-07-20T04:12:25.015Z,3.80
2018-07-20T04:14:53.893Z,3.50
2018-07-20T04:17:22.822Z,3.50
2018-07-20T04:19:51.666Z,3.57
2018-07-20T04:22:20.518Z,3.40
2018-07-20T04:24:49.675Z,3.20
2018-07-20T04:27:18.527Z,3.17
2018-07-20T04:29:47.230Z,3.43
2018-07-20T04:32:16.426Z,2.90
2018-07-20T04:34:45.543Z,3.33
2018-07-20T04:37:14.418Z,3.30
2018-07-20T04:39:43.900Z,3.47
2018-07-20T04:42:12.877Z,3.23
2018-07-20T04:44:41.598Z,3.20
2018-07-20T04:47:10.747Z,3.10
2018-07-20T04:49:39.872Z,3.27
2018-07-20T04:52:08.751Z,3.27
2018-07-20T04:54:37.515Z,3.30
2018-07-20T04:57:06.618Z,3.87
2018-07-20T04:59:35.463Z,3.40
2018-07-20T05:02:04.340Z,3.30
2018-07-20T05:04:33.211Z,3.40
2018-07-20T05:07:02.111Z,3.20
2018-07-20T05:09:30.942Z,3.30
2018-07-20T05:12:00.054Z,3.57
2018-07-20T05:14:29.154Z,3.60
2018-07-20T05:16:58.239Z,3.77
2018-07-20T05:19:27.367Z,3.40
2018-07-20T05:21:56.723Z,3.43
2018-07-20T05:24:25.607Z,3.50
2018-07-20T05:26:54.521Z,3.10
2018-07-20T05:29:23.451Z,3.13
2018-07-20T05:31:53.976Z,3.20
2018-07-20T05:34:23.146Z,3.27
2018-07-20T05:36:52.091Z,3.17
2018-07-20T05:39:21.236Z,3.23
2018-07-20T05:41:51.172Z,3.23
2018-07-20T05:44:20.440Z,3.23
2018-07-20T05:46:49.262Z,3.30
2018-07-20T05:49:18.883Z,3.20
2018-07-20T05:51:49.057Z,3.20
2018-07-20T05:54:18.270Z,3.00
2018-07-20T05:56:47.357Z,3.10
2018-07-20T05:59:16.852Z,3.20
2018-07-20T06:01:45.955Z,3.70
2018-07-20T06:04:14.861Z,3.73
2018-07-20T06:06:44.067Z,3.43
2018-07-20T06:09:13.146Z,3.53
2018-07-20T06:11:41.832Z,3.30
2018-07-20T06:14:10.604Z,4.70
2018-07-20T06:16:39.711Z,4.20
2018-07-20T06:19:08.564Z,3.37
2018-07-20T06:21:37.723Z,3.40
2018-07-20T06:24:06.894Z,3.80
2018-07-20T06:26:35.763Z,3.53
2018-07-20T06:29:04.666Z,3.40
2018-07-20T06:31:34.078Z,3.23
2018-07-20T06:34:02.960Z,3.83
2018-07-20T06:36:31.821Z,3.10
2018-07-20T06:39:00.948Z,2.80
2018-07-20T06:41:29.939Z,3.40
2018-07-20T06:43:59.383Z,3.10
2018-07-20T06:46:28.478Z,3.03
2018-07-20T06:48:57.343Z,3.47
2018-07-20T06:51:26.574Z,3.00
2018-07-20T06:53:55.940Z,3.30
2018-07-20T06:56:25.054Z,3.23
2018-07-20T06:58:53.910Z,2.90
2018-07-20T07:01:23.077Z,3.20
2018-07-20T07:03:52.215Z,3.20
2018-07-20T07:06:21.091Z,3.33
2018-07-20T07:08:50.368Z,3.13
2018-07-20T07:11:19.231Z,3.30
2018-07-20T07:13:48.327Z,3.20
2018-07-20T07:16:17.202Z,3.17
2018-07-20T07:18:46.719Z,2.70
2018-07-20T07:21:15.574Z,3.10
2018-07-20T07:23:44.530Z,2.77
2018-07-20T07:26:13.587Z,2.90
2018-07-20T07:28:42.856Z,2.70
2018-07-20T07:31:12.670Z,2.80
2018-07-20T07:33:41.547Z,2.90
2018-07-20T07:36:10.410Z,2.77
2018-07-20T07:38:39.259Z,2.83
2018-07-20T07:41:08.550Z,2.70
2018-07-20T07:43:37.635Z,3.10
2018-07-20T07:46:06.789Z,2.70
2018-07-20T07:48:35.634Z,2.90
2018-07-20T07:51:04.495Z,2.80
2018-07-20T07:53:33.385Z,2.97
2018-07-20T07:56:02.743Z,2.70
2018-07-20T07:58:31.903Z,2.57
2018-07-20T08:01:01.074Z,2.30
2018-07-20T08:03:30.101Z,2.53
2018-07-20T08:05:59.172Z,3.10
2018-07-20T08:08:28.040Z,2.50
2018-07-20T08:10:56.933Z,2.90
2018-07-20T08:13:26.370Z,3.03
2018-07-20T08:15:55.327Z,2.47
2018-07-20T08:18:24.182Z,2.80
2018-07-20T08:20:53.306Z,2.67
2018-07-20T08:23:22.453Z,2.77
2018-07-20T08:25:51.534Z,2.90
2018-07-20T08:28:20.410Z,2.80
2018-07-20T08:30:49.485Z,2.70
2018-07-20T08:33:18.329Z,2.50
2018-07-20T08:35:47.302Z,2.40
2018-07-20T08:38:16.194Z,2.90
2018-07-20T08:40:45.072Z,2.67
2018-07-20T08:43:14.217Z,2.70
2018-07-20T08:45:43.178Z,2.83
2018-07-20T08:48:12.067Z,2.63
2018-07-20T08:50:41.447Z,2.73
2018-07-20T08:53:10.345Z,2.60
2018-07-20T08:55:39.271Z,2.57
2018-07-20T08:58:08.138Z,2.50
2018-07-20T09:00:37.015Z,2.50
2018-07-20T09:03:05.977Z,2.70
2018-07-20T09:05:37.758Z,2.40
2018-07-20T09:08:06.898Z,2.70
2018-07-20T09:10:36.274Z,2.40
2018-07-20T09:13:05.124Z,2.40
2018-07-20T09:15:34.273Z,2.60
2018-07-20T09:18:03.429Z,2.60
2018-07-20T09:20:33.696Z,2.37
2018-07-20T09:23:02.904Z,2.30
2018-07-20T09:25:31.865Z,2.17
2018-07-20T09:28:01.276Z,2.50
2018-07-20T09:30:30.403Z,2.30
2018-07-20T09:32:59.042Z,2.40
2018-07-20T09:35:27.785Z,2.63
2018-07-20T09:37:56.642Z,2.33
2018-07-20T09:40:25.739Z,2.43
2018-07-20T09:42:54.609Z,2.50
2018-07-20T09:45:23.736Z,2.60
2018-07-20T09:47:52.811Z,2.57
2018-07-20T09:50:21.933Z,2.30
2018-07-20T09:52:52.046Z,2.10
2018-07-20T09:55:21.682Z,2.50
2018-07-20T09:57:50.582Z,2.37
2018-07-20T10:00:24.896Z,2.17
2018-07-20T10:02:53.762Z,2.33
2018-07-20T10:05:22.625Z,2.10
2018-07-20T10:07:51.798Z,2.30
2018-07-20T10:10:20.935Z,2.10
2018-07-20T10:12:50.106Z,1.97
2018-07-20T10:15:19.266Z,2.10
2018-07-20T10:17:48.611Z,2.20
2018-07-20T10:20:17.485Z,2.33
2018-07-20T10:22:46.429Z,2.03
2018-07-20T10:25:15.274Z,2.27
2018-07-20T10:30:13.348Z,2.20
2018-07-20T10:32:42.182Z,2.10
2018-07-20T10:35:11.336Z,2.00
2018-07-20T10:37:40.202Z,1.90
2018-07-20T10:40:09.375Z,2.20
2018-07-20T10:42:38.277Z,2.10
2018-07-20T10:45:07.880Z,2.33
2018-07-20T10:47:37.042Z,2.00
2018-07-20T10:50:06.340Z,2.00
2018-07-20T10:52:35.277Z,2.10
2018-07-20T10:55:04.183Z,2.10
2018-07-20T10:57:33.090Z,2.23
2018-07-20T11:00:02.059Z,2.20
2018-07-20T11:02:30.934Z,1.80
2018-07-20T11:04:59.772Z,2.10
2018-07-20T11:07:28.622Z,1.97
2018-07-20T11:09:58.062Z,2.10
2018-07-20T11:12:26.947Z,2.30
2018-07-20T11:14:55.810Z,2.13
2018-07-20T11:17:25.366Z,2.10
2018-07-20T11:19:54.558Z,2.10
2018-07-20T11:22:23.433Z,2.00
2018-07-20T11:24:52.346Z,2.40
2018-07-20T11:27:21.222Z,1.83
2018-07-20T11:29:50.073Z,1.80
2018-07-20T11:32:18.944Z,1.97
2018-07-20T11:34:47.833Z,1.80
2018-07-20T11:37:16.888Z,1.60
2018-07-20T11:39:45.769Z,1.90
2018-07-20T11:42:15.188Z,1.90
2018-07-20T11:44:44.078Z,2.10
2018-07-20T11:47:13.519Z,1.90
2018-07-20T11:49:42.890Z,2.03
2018-07-20T11:52:12.099Z,1.80
2018-07-20T11:54:40.986Z,1.80
2018-07-20T11:57:09.718Z,2.00
2018-07-20T11:59:38.637Z,2.10
2018-07-20T12:02:07.545Z,2.13
2018-07-20T12:04:36.504Z,2.07
2018-07-20T12:07:06.243Z,1.50
2018-07-20T12:09:35.121Z,2.10
2018-07-20T12:12:04.238Z,2.00
2018-07-20T12:14:33.076Z,1.80
2018-07-20T12:17:01.963Z,1.60
2018-07-20T12:19:30.823Z,1.70
2018-07-20T12:21:59.936Z,1.93
2018-07-20T12:24:28.873Z,1.83
2018-07-20T12:26:57.711Z,1.73
2018-07-20T12:29:26.676Z,2.00
2018-07-20T12:31:55.812Z,1.90
2018-07-20T12:34:24.687Z,2.00
2018-07-20T12:36:53.853Z,1.73
2018-07-20T12:39:22.940Z,1.80
2018-07-20T12:41:51.808Z,1.70
2018-07-20T12:44:20.817Z,1.73
2018-07-20T12:46:49.747Z,1.90
2018-07-20T12:49:18.935Z,1.90
2018-07-20T12:51:47.875Z,1.90
2018-07-20T12:54:16.742Z,1.73
2018-07-20T12:56:45.632Z,1.83
2018-07-20T12:59:14.784Z,2.03
2018-07-20T13:01:43.654Z,2.00
2018-07-20T13:04:12.550Z,1.83
2018-07-20T13:06:41.619Z,1.83
2018-07-20T13:09:12.431Z,1.80
2018-07-20T13:11:42.356Z,1.90
2018-07-20T13:14:12.112Z,1.80
2018-07-20T13:16:41.513Z,1.90
2018-07-20T13:19:10.386Z,1.70
2018-07-20T13:21:39.260Z,1.60
2018-07-20T13:24:08.107Z,1.80
2018-07-20T13:26:37.290Z,2.00
2018-07-20T13:29:06.175Z,1.77
2018-07-20T13:31:35.110Z,1.80
2018-07-20T13:34:03.989Z,1.87
2018-07-20T13:36:32.854Z,2.00
2018-07-20T13:39:02.144Z,2.17
2018-07-20T13:41:31.072Z,1.97
2018-07-20T13:43:59.933Z,2.10
2018-07-20T13:46:28.800Z,1.90
2018-07-20T13:48:57.853Z,1.80
2018-07-20T13:51:26.960Z,1.90
2018-07-20T13:53:56.216Z,2.10
2018-07-20T13:56:25.043Z,1.90
2018-07-20T13:58:54.010Z,1.90
2018-07-20T14:01:23.186Z,1.70
2018-07-20T14:03:52.040Z,1.97
2018-07-20T14:06:20.905Z,1.80
2018-07-20T14:08:49.851Z,2.00
2018-07-20T14:11:18.743Z,2.10
2018-07-20T14:13:47.634Z,1.80
2018-07-20T14:16:16.542Z,1.70
2018-07-20T14:18:45.457Z,2.20
2018-07-20T14:21:14.310Z,1.80
2018-07-20T14:23:43.202Z,2.10
2018-07-20T14:26:12.064Z,2.10
2018-07-20T14:28:40.908Z,2.00
2018-07-20T14:31:11.744Z,2.00
2018-07-20T14:33:40.619Z,1.90
2018-07-20T14:36:09.524Z,1.90
2018-07-20T14:38:38.383Z,2.10
2018-07-20T14:41:07.231Z,2.07
2018-07-20T14:43:36.127Z,2.10
2018-07-20T14:46:05.007Z,2.10
2018-07-20T14:48:33.885Z,2.13
2018-07-20T14:51:02.843Z,1.70
2018-07-20T14:53:31.786Z,2.00
2018-07-20T14:56:00.678Z,2.00
2018-07-20T14:58:29.572Z,2.10
2018-07-20T15:00:58.712Z,1.90
2018-07-20T15:03:27.834Z,1.90
2018-07-20T15:05:56.713Z,1.80
2018-07-20T15:08:25.898Z,2.10
2018-07-20T15:10:54.756Z,2.20
2018-07-20T15:13:23.806Z,2.00
2018-07-20T15:15:52.697Z,2.10
2018-07-20T15:18:21.546Z,2.40
2018-07-20T15:20:51.634Z,2.37
2018-07-20T15:23:20.595Z,2.00
2018-07-20T15:25:49.855Z,2.20
2018-07-20T15:28:18.748Z,2.10
2018-07-20T15:30:47.659Z,2.17
2018-07-20T15:33:16.845Z,1.83
2018-07-20T15:35:53.376Z,2.17
2018-07-20T15:38:23.047Z,2.00
2018-07-20T15:40:52.187Z,2.23
2018-07-20T15:43:21.661Z,2.07
2018-07-20T15:46:05.599Z,2.20
2018-07-20T15:48:20.530Z,2.07
2018-07-20T15:50:49.732Z,2.20
2018-07-20T15:53:46.070Z,2.27
2018-07-20T15:55:47.689Z,2.00
2018-07-20T15:58:16.619Z,2.10
2018-07-20T16:00:45.755Z,2.23
2018-07-20T16:03:14.630Z,2.00
2018-07-20T16:05:43.527Z,2.00
2018-07-20T16:08:12.679Z,2.00
2018-07-20T16:10:41.551Z,2.30
2018-07-20T16:13:10.554Z,2.20
2018-07-20T16:15:40.169Z,2.27
2018-07-20T16:18:09.249Z,2.57
2018-07-20T16:20:38.558Z,2.43
2018-07-20T16:23:07.414Z,1.93
2018-07-20T16:25:36.594Z,2.27
2018-07-20T16:28:05.647Z,2.10
2018-07-20T16:30:34.539Z,2.10
2018-07-20T16:33:03.454Z,2.20
2018-07-20T16:35:32.558Z,2.30
2018-07-20T16:38:01.407Z,2.10
2018-07-20T16:40:30.295Z,2.40
2018-07-20T16:42:59.599Z,2.10
2018-07-20T16:45:28.738Z,2.00
2018-07-20T16:47:57.621Z,2.53
2018-07-20T16:50:26.491Z,2.33
2018-07-20T16:52:55.453Z,2.17
2018-07-20T16:55:24.302Z,2.30
2018-07-20T16:57:53.189Z,2.13
2018-07-20T17:00:22.322Z,2.27
2018-07-20T17:02:51.171Z,2.40
2018-07-20T17:05:20.060Z,2.53
2018-07-20T17:07:49.251Z,2.37
2018-07-20T17:10:18.452Z,2.23
2018-07-20T17:12:47.628Z,2.20
2018-07-20T17:15:16.551Z,2.30
2018-07-20T17:17:45.520Z,2.13
2018-07-20T17:20:14.667Z,2.47
2018-07-20T17:22:44.067Z,2.27
2018-07-20T17:25:12.955Z,2.40
2018-07-20T17:27:41.960Z,2.50
2018-07-20T17:30:11.114Z,2.60
2018-07-20T17:32:40.153Z,2.33
2018-07-20T17:35:09.019Z,2.20
2018-07-20T17:37:37.995Z,2.10
2018-07-20T17:40:06.886Z,2.23
2018-07-20T17:42:36.047Z,2.43
2018-07-20T17:45:07.992Z,2.33
2018-07-20T17:47:37.186Z,2.33
2018-07-20T17:50:06.844Z,2.50
2018-07-20T17:52:35.726Z,2.13
2018-07-20T17:55:05.416Z,2.30
2018-07-20T17:57:34.355Z,2.50
2018-07-20T18:00:03.350Z,2.33
2018-07-20T18:02:32.218Z,2.37
2018-07-20T18:05:01.114Z,2.40
2018-07-20T18:07:30.742Z,2.60
2018-07-20T18:09:59.607Z,3.13
2018-07-20T18:12:28.509Z,2.80
2018-07-20T18:14:57.537Z,2.40
2018-07-20T18:17:26.506Z,2.80
2018-07-20T18:19:55.399Z,2.37
2018-07-20T18:22:24.289Z,2.37
2018-07-20T18:24:53.137Z,2.70
2018-07-20T18:27:22.943Z,2.40
2018-07-20T18:29:58.479Z,2.63
2018-07-20T18:32:27.366Z,2.60
2018-07-20T18:34:56.421Z,2.93
2018-07-20T18:37:25.290Z,2.57
2018-07-20T18:39:54.445Z,2.60
2018-07-20T18:42:23.282Z,3.00
2018-07-20T18:44:52.542Z,2.60
2018-07-20T18:47:22.800Z,2.70
2018-07-20T18:49:51.967Z,2.30
2018-07-20T18:52:20.951Z,2.90
2018-07-20T18:54:49.903Z,2.60
2018-07-20T18:57:18.803Z,2.40
2018-07-20T18:59:47.718Z,2.60
2018-07-20T19:02:16.765Z,2.80
2018-07-20T19:04:45.618Z,2.73
2018-07-20T19:07:14.484Z,2.70
2018-07-20T19:09:43.395Z,2.50
2018-07-20T19:12:13.131Z,2.50
2018-07-20T19:14:48.491Z,2.53
2018-07-20T19:17:17.377Z,2.80
2018-07-20T19:19:46.516Z,2.53
2018-07-20T19:22:15.706Z,2.47
2018-07-20T19:24:44.598Z,2.60
2018-07-20T19:27:13.921Z,2.67
2018-07-20T19:29:42.780Z,2.30
2018-07-20T19:32:12.125Z,2.50
2018-07-20T19:34:41.306Z,2.73
2018-07-20T19:37:10.178Z,2.50
2018-07-20T19:39:39.709Z,2.90
2018-07-20T19:42:08.698Z,2.60
2018-07-20T19:44:37.570Z,2.93
2018-07-20T19:47:06.421Z,2.67
2018-07-20T19:49:35.621Z,2.40
2018-07-20T19:52:04.740Z,2.50
2018-07-20T19:54:33.606Z,2.63
2018-07-20T19:57:02.472Z,2.83
2018-07-20T19:59:31.324Z,2.90
2018-07-20T20:02:00.424Z,2.80
2018-07-20T20:04:29.611Z,2.73
2018-07-20T20:06:58.833Z,2.67
2018-07-20T20:09:27.744Z,2.90
2018-07-20T20:11:56.628Z,2.83
2018-07-20T20:14:25.734Z,2.70
2018-07-20T20:16:54.637Z,2.80
2018-07-20T20:19:23.490Z,2.80
2018-07-20T20:21:52.366Z,2.60
2018-07-20T20:24:21.467Z,2.73
2018-07-20T20:26:50.324Z,3.23
2018-07-20T20:29:19.239Z,2.73
2018-07-20T20:34:37.569Z,2.73
2018-07-20T20:37:07.235Z,2.67
2018-07-20T20:39:36.129Z,2.97
2018-07-20T20:42:05.214Z,2.37
2018-07-20T20:44:34.154Z,2.80
2018-07-20T20:47:03.251Z,2.90
2018-07-20T20:49:32.433Z,2.40
2018-07-20T20:52:01.543Z,2.50
2018-07-20T20:54:30.456Z,2.80
2018-07-20T20:56:59.303Z,2.43
2018-07-20T20:59:28.174Z,2.70
2018-07-20T21:01:57.078Z,2.53
2018-07-20T21:04:26.008Z,2.60
2018-07-20T21:06:54.806Z,2.60
2018-07-20T21:09:23.962Z,2.50
2018-07-20T21:11:52.910Z,2.90
2018-07-20T21:14:21.972Z,2.60
2018-07-20T21:16:50.869Z,2.40
2018-07-20T21:19:19.754Z,2.60
2018-07-20T21:21:48.900Z,2.43
2018-07-20T21:24:17.795Z,2.27
2018-07-20T21:26:46.672Z,2.53
2018-07-20T21:29:15.795Z,2.17
2018-07-20T21:31:44.751Z,2.20
2018-07-20T21:34:13.596Z,2.30
2018-07-20T21:36:42.503Z,2.53
2018-07-20T21:39:13.064Z,2.20
2018-07-20T21:41:43.082Z,2.40
2018-07-20T21:44:12.055Z,2.30
2018-07-20T21:46:41.286Z,2.00
2018-07-20T21:49:10.161Z,2.70
2018-07-20T21:51:39.019Z,2.23
2018-07-20T21:54:07.972Z,2.10
2018-07-20T21:56:36.846Z,2.60
2018-07-20T21:59:05.799Z,2.20
2018-07-20T22:01:35.797Z,2.60
2018-07-20T22:04:06.417Z,2.60
2018-07-20T22:06:35.873Z,2.50
2018-07-20T22:09:07.307Z,2.30
2018-07-20T22:11:36.226Z,2.30
2018-07-20T22:14:05.086Z,2.37
2018-07-20T22:16:34.892Z,2.00
2018-07-20T22:19:03.922Z,2.00
2018-07-20T22:21:32.778Z,2.00
2018-07-20T22:24:01.913Z,2.40
2018-07-20T22:26:30.803Z,2.50
2018-07-20T22:28:59.895Z,2.27
2018-07-20T22:31:28.755Z,2.27
2018-07-20T22:33:57.636Z,1.90
2018-07-20T22:36:26.518Z,2.40
2018-07-20T22:38:55.368Z,2.10
2018-07-20T22:41:24.224Z,2.00
2018-07-20T22:43:53.107Z,2.10
2018-07-20T22:46:21.974Z,2.30
2018-07-20T22:48:51.100Z,2.07
2018-07-20T22:51:19.999Z,2.37
2018-07-20T22:53:48.851Z,2.07
2018-07-20T22:56:17.715Z,2.03
2018-07-20T22:58:47.091Z,2.10
2018-07-20T23:01:15.966Z,1.93
2018-07-20T23:03:44.820Z,2.00
2018-07-20T23:06:13.731Z,2.00
2018-07-20T23:08:42.855Z,1.97
2018-07-20T23:11:12.838Z,2.10
2018-07-20T23:13:42.576Z,2.00
2018-07-20T23:16:11.676Z,2.37
2018-07-20T23:18:40.576Z,2.10
2018-07-20T23:21:09.443Z,1.83
2018-07-20T23:23:38.356Z,1.90
2018-07-20T23:26:07.469Z,2.07
2018-07-20T23:28:36.307Z,1.97
2018-07-20T23:31:05.203Z,2.10
2018-07-20T23:33:34.101Z,2.10
2018-07-20T23:36:02.956Z,2.00
2018-07-20T23:38:31.854Z,1.90
2018-07-20T23:41:00.711Z,1.77
2018-07-20T23:43:29.575Z,1.90
2018-07-20T23:45:58.253Z,2.20
2018-07-20T23:48:27.140Z,1.90
2018-07-20T23:50:56.254Z,1.93
2018-07-20T23:53:25.107Z,2.00
2018-07-20T23:55:53.990Z,2.00
2018-07-20T23:58:22.863Z,1.90
